createdAt,value
2023-04-11T00:01:34.785Z,3.88
2023-04-11T00:04:02.375Z,3.88
2023-04-11T00:06:29.766Z,4.13
2023-04-11T00:08:57.434Z,3.50
2023-04-11T00:11:25.072Z,3.88
2023-04-11T00:13:53.329Z,3.90
2023-04-11T00:16:20.623Z,3.92
2023-04-11T00:18:48.304Z,3.63
2023-04-11T00:21:15.472Z,3.60
2023-04-11T00:23:42.778Z,3.63
2023-04-11T00:26:10.026Z,3.35
2023-04-11T00:28:38.950Z,3.80
2023-04-11T00:31:07.248Z,4.13
2023-04-11T00:33:35.514Z,3.72
2023-04-11T00:36:02.753Z,4.32
2023-04-11T00:38:30.132Z,3.58
2023-04-11T00:40:57.531Z,4.10
2023-04-11T00:43:24.835Z,3.47
2023-04-11T00:45:52.180Z,4.18
2023-04-11T00:48:19.853Z,3.55
2023-04-11T00:50:47.056Z,3.92
2023-04-11T00:53:14.961Z,3.15
2023-04-11T00:55:42.269Z,4.57
2023-04-11T00:58:09.652Z,3.63
2023-04-11T01:00:38.782Z,3.50
2023-04-11T01:03:06.960Z,3.90
2023-04-11T01:05:35.796Z,3.70
2023-04-11T01:08:03.379Z,4.47
2023-04-11T01:10:33.129Z,3.90
2023-04-11T01:13:01.272Z,3.67
2023-04-11T01:15:28.798Z,3.88
2023-04-11T01:17:58.105Z,3.90
2023-04-11T01:20:26.639Z,3.95
2023-04-11T01:22:56.966Z,3.40
2023-04-11T01:25:25.200Z,3.03
2023-04-11T01:27:52.428Z,4.03
2023-04-11T01:30:19.804Z,4.10
2023-04-11T01:32:50.630Z,3.33
2023-04-11T01:35:19.241Z,3.13
2023-04-11T01:37:46.537Z,3.47
2023-04-11T01:40:17.206Z,3.40
2023-04-11T01:42:46.152Z,3.67
2023-04-11T01:45:13.431Z,3.08
2023-04-11T01:47:41.154Z,3.00
2023-04-11T01:50:08.804Z,3.30
2023-04-11T01:52:36.630Z,3.60
2023-04-11T01:55:04.128Z,4.47
2023-04-11T01:57:32.086Z,3.50
2023-04-11T01:59:59.372Z,2.92
2023-04-11T02:02:26.848Z,2.95
2023-04-11T02:04:54.122Z,4.32
2023-04-11T02:07:21.343Z,3.60
2023-04-11T02:09:48.662Z,3.53
2023-04-11T02:12:16.035Z,3.30
2023-04-11T02:14:45.185Z,3.85
2023-04-11T02:17:14.309Z,4.18
2023-04-11T02:19:41.554Z,4.05
2023-04-11T02:22:09.376Z,4.10
2023-04-11T02:24:36.580Z,3.97
2023-04-11T02:27:04.379Z,3.58
2023-04-11T02:29:31.561Z,4.40
2023-04-11T02:31:59.012Z,4.15
2023-04-11T02:34:26.897Z,3.80
2023-04-11T02:36:55.843Z,3.95
2023-04-11T02:39:24.276Z,3.65
2023-04-11T02:41:51.524Z,4.25
2023-04-11T02:44:19.784Z,4.38
2023-04-11T02:46:47.567Z,3.90
2023-04-11T02:49:15.266Z,4.35
2023-04-11T02:51:44.649Z,3.78
2023-04-11T02:54:12.882Z,4.78
2023-04-11T02:56:40.413Z,4.40
2023-04-11T02:59:07.745Z,4.22
2023-04-11T03:01:37.844Z,3.90
2023-04-11T03:04:05.694Z,3.78
2023-04-11T03:06:43.603Z,4.47
2023-04-11T03:09:11.836Z,4.80
2023-04-11T03:11:39.029Z,4.47
2023-04-11T03:14:06.588Z,4.57
2023-04-11T03:16:34.204Z,5.00
2023-04-11T03:19:01.483Z,4.07
2023-04-11T03:21:28.784Z,3.83
2023-04-11T03:23:55.957Z,4.72
2023-04-11T03:26:27.314Z,4.90
2023-04-11T03:28:59.291Z,4.07
2023-04-11T03:31:31.686Z,4.33
2023-04-11T03:33:59.384Z,4.95
2023-04-11T03:36:27.230Z,3.58
2023-04-11T03:38:55.098Z,3.58
2023-04-11T03:41:22.670Z,4.50
2023-04-11T03:43:52.111Z,4.25
2023-04-11T03:46:21.830Z,3.88
2023-04-11T03:48:49.183Z,4.03
2023-04-11T03:51:18.479Z,3.72
2023-04-11T03:53:52.728Z,4.03
2023-04-11T03:56:25.687Z,3.53
2023-04-11T03:58:53.750Z,4.05
2023-04-11T04:01:24.485Z,3.75
2023-04-11T04:03:55.080Z,3.42
2023-04-11T04:06:22.583Z,4.00
2023-04-11T04:08:50.353Z,3.85
2023-04-11T04:11:19.515Z,3.55
2023-04-11T04:13:47.483Z,4.47
2023-04-11T04:16:17.960Z,4.05
2023-04-11T04:18:51.782Z,4.25
2023-04-11T04:21:21.902Z,4.68
2023-04-11T04:23:54.444Z,3.53
2023-04-11T04:26:30.056Z,3.50
2023-04-11T04:29:10.717Z,3.38
2023-04-11T04:31:41.190Z,4.53
2023-04-11T04:34:08.952Z,4.13
2023-04-11T04:36:56.553Z,4.05
2023-04-11T04:39:38.250Z,4.05
2023-04-11T04:42:07.973Z,4.18
2023-04-11T04:44:39.525Z,3.70
2023-04-11T04:47:15.893Z,4.03
2023-04-11T04:49:44.913Z,3.75
2023-04-11T04:52:13.960Z,4.40
2023-04-11T04:54:41.732Z,4.82
2023-04-11T04:57:09.034Z,4.85
2023-04-11T04:59:36.487Z,4.20
2023-04-11T05:02:11.572Z,4.93
2023-04-11T05:04:42.102Z,4.45
2023-04-11T05:07:11.062Z,4.68
2023-04-11T05:09:38.363Z,4.10
2023-04-11T05:12:14.070Z,5.78
2023-04-11T05:14:42.477Z,4.30
2023-04-11T05:17:09.960Z,4.28
2023-04-11T05:19:37.224Z,4.45
2023-04-11T05:22:04.716Z,3.88
2023-04-11T05:24:37.311Z,4.47
2023-04-11T05:27:08.404Z,3.97
2023-04-11T05:29:35.752Z,4.05
2023-04-11T05:32:03.352Z,4.78
2023-04-11T05:34:33.003Z,4.28
2023-04-11T05:37:01.793Z,5.00
2023-04-11T05:39:29.047Z,5.10
2023-04-11T05:41:57.210Z,5.32
2023-04-11T05:44:24.412Z,4.85
2023-04-11T05:46:51.568Z,4.82
2023-04-11T05:49:18.855Z,4.93
2023-04-11T05:51:46.001Z,4.50
2023-04-11T05:54:31.466Z,4.95
2023-04-11T05:56:58.798Z,5.57
2023-04-11T05:59:28.333Z,4.20
2023-04-11T06:01:56.987Z,4.65
2023-04-11T06:04:24.761Z,4.72
2023-04-11T06:06:53.668Z,5.40
2023-04-11T06:09:21.242Z,4.97
2023-04-11T06:11:48.424Z,4.20
2023-04-11T06:14:15.648Z,4.68
2023-04-11T06:16:43.033Z,5.18
2023-04-11T06:19:10.145Z,4.53
2023-04-11T06:21:37.603Z,4.97
2023-04-11T06:24:09.106Z,4.82
2023-04-11T06:26:36.648Z,4.50
2023-04-11T06:29:06.544Z,4.40
2023-04-11T06:31:34.495Z,4.72
2023-04-11T06:34:02.189Z,5.28
2023-04-11T06:36:31.498Z,4.32
2023-04-11T06:38:58.754Z,5.45
2023-04-11T06:41:25.963Z,5.10
2023-04-11T06:43:53.142Z,5.22
2023-04-11T06:46:20.508Z,5.90
2023-04-11T06:48:47.690Z,5.45
2023-04-11T06:51:14.914Z,4.20
2023-04-11T06:53:42.181Z,5.20
2023-04-11T06:56:10.586Z,4.78
2023-04-11T06:58:37.789Z,4.88
2023-04-11T07:01:05.239Z,4.57
2023-04-11T07:03:32.638Z,4.78
2023-04-11T07:05:59.976Z,5.15
2023-04-11T07:08:27.216Z,6.00
2023-04-11T07:10:54.580Z,5.60
2023-04-11T07:13:22.121Z,5.72
2023-04-11T07:15:49.417Z,5.65
2023-04-11T07:18:16.688Z,5.05
2023-04-11T07:20:43.987Z,5.20
2023-04-11T07:23:11.166Z,5.75
2023-04-11T07:25:39.531Z,5.15
2023-04-11T07:28:07.495Z,5.47
2023-04-11T07:30:36.376Z,4.63
2023-04-11T07:33:04.339Z,5.03
2023-04-11T07:35:33.847Z,5.22
2023-04-11T07:38:01.729Z,5.03
2023-04-11T07:40:29.050Z,5.50
2023-04-11T07:42:56.457Z,4.78
2023-04-11T07:45:23.853Z,4.88
2023-04-11T07:47:51.115Z,5.50
2023-04-11T07:50:18.329Z,5.75
2023-04-11T07:52:45.521Z,4.90
2023-04-11T07:55:12.742Z,5.90
2023-04-11T07:57:39.880Z,5.57
2023-04-11T08:00:11.663Z,5.63
2023-04-11T08:02:39.973Z,5.38
2023-04-11T08:05:10.052Z,5.30
2023-04-11T08:07:37.278Z,5.45
2023-04-11T08:10:05.628Z,4.93
2023-04-11T08:12:32.816Z,4.93
2023-04-11T08:15:00.816Z,5.00
2023-04-11T08:17:29.484Z,4.63
2023-04-11T08:19:57.960Z,5.25
2023-04-11T08:22:25.180Z,4.80
2023-04-11T08:24:52.841Z,4.53
2023-04-11T08:27:20.173Z,4.90
2023-04-11T08:29:47.398Z,5.43
2023-04-11T08:32:14.635Z,4.32
2023-04-11T08:34:41.841Z,6.30
2023-04-11T08:37:08.954Z,5.03
2023-04-11T08:39:36.257Z,4.95
2023-04-11T08:42:04.065Z,4.57
2023-04-11T08:44:31.322Z,5.72
2023-04-11T08:46:58.696Z,5.55
2023-04-11T08:49:26.056Z,5.30
2023-04-11T08:51:56.425Z,5.05
2023-04-11T08:54:23.641Z,3.67
2023-04-11T08:56:50.940Z,4.80
2023-04-11T08:59:18.193Z,4.72
2023-04-11T09:01:45.458Z,5.53
2023-04-11T09:04:12.905Z,5.00
2023-04-11T09:06:40.488Z,4.82
2023-04-11T09:09:09.098Z,4.57
2023-04-11T09:11:52.052Z,4.20
2023-04-11T09:14:24.499Z,5.00
2023-04-11T09:16:54.822Z,5.13
2023-04-11T09:19:24.700Z,5.13
2023-04-11T09:21:53.250Z,4.47
2023-04-11T09:24:20.436Z,4.20
2023-04-11T09:26:47.674Z,4.20
2023-04-11T09:29:37.204Z,4.95
2023-04-11T09:32:04.710Z,4.35
2023-04-11T09:34:33.296Z,4.95
2023-04-11T09:37:01.715Z,4.55
2023-04-11T09:39:29.655Z,4.50
2023-04-11T09:41:57.450Z,3.75
2023-04-11T09:44:37.781Z,4.50
2023-04-11T09:47:05.338Z,4.72
2023-04-11T09:49:35.093Z,4.38
2023-04-11T09:52:03.347Z,3.97
2023-04-11T09:54:32.105Z,3.78
2023-04-11T09:56:59.916Z,4.05
2023-04-11T09:59:27.840Z,3.67
2023-04-11T10:01:57.738Z,4.70
2023-04-11T10:04:28.196Z,3.90
2023-04-11T10:07:05.735Z,3.58
2023-04-11T10:09:33.570Z,4.10
2023-04-11T10:12:00.855Z,3.78
2023-04-11T10:14:31.684Z,4.00
2023-04-11T10:17:11.392Z,3.53
2023-04-11T10:19:38.686Z,3.47
2023-04-11T10:22:05.883Z,3.67
2023-04-11T10:24:33.087Z,4.22
2023-04-11T10:27:03.942Z,3.63
2023-04-11T10:29:52.041Z,3.58
2023-04-11T10:32:21.655Z,3.60
2023-04-11T10:35:08.958Z,4.45
2023-04-11T10:37:37.463Z,3.47
2023-04-11T10:40:10.104Z,3.22
2023-04-11T10:42:39.976Z,3.30
2023-04-11T10:45:10.164Z,3.58
2023-04-11T10:47:37.351Z,3.15
2023-04-11T10:50:19.070Z,3.55
2023-04-11T10:52:46.386Z,4.03
2023-04-11T10:55:17.337Z,4.28
2023-04-11T10:57:47.585Z,3.85
2023-04-11T11:00:16.716Z,3.30
2023-04-11T11:02:44.254Z,3.72
2023-04-11T11:05:14.856Z,3.83
2023-04-11T11:07:47.753Z,3.40
2023-04-11T11:10:16.304Z,3.58
2023-04-11T11:12:52.697Z,3.78
2023-04-11T11:15:19.982Z,4.07
2023-04-11T11:17:47.665Z,3.78
2023-04-11T11:20:19.713Z,3.20
2023-04-11T11:22:49.958Z,3.83
2023-04-11T11:25:17.185Z,3.45
2023-04-11T11:27:44.342Z,3.92
2023-04-11T11:30:12.422Z,4.05
2023-04-11T11:32:39.587Z,3.42
2023-04-11T11:35:10.143Z,4.25
2023-04-11T11:37:37.479Z,3.42
2023-04-11T11:40:09.469Z,3.60
2023-04-11T11:42:37.385Z,3.72
2023-04-11T11:45:08.196Z,3.63
2023-04-11T11:47:38.464Z,3.38
2023-04-11T11:50:07.227Z,3.20
2023-04-11T11:52:37.753Z,3.92
2023-04-11T11:55:10.369Z,3.92
2023-04-11T11:57:43.745Z,3.70
2023-04-11T12:00:11.925Z,3.78
2023-04-11T12:02:42.218Z,3.53
2023-04-11T12:05:12.173Z,3.42
2023-04-11T12:07:39.789Z,3.58
2023-04-11T12:10:11.863Z,3.80
2023-04-11T12:12:42.083Z,3.83
2023-04-11T12:15:12.139Z,3.72
2023-04-11T12:17:40.849Z,2.90
2023-04-11T12:20:10.703Z,3.10
2023-04-11T12:22:38.480Z,3.95
2023-04-11T12:25:06.954Z,3.50
2023-04-11T12:27:35.122Z,3.25
2023-04-11T12:30:02.560Z,3.17
2023-04-11T12:32:30.115Z,2.97
2023-04-11T12:34:57.265Z,3.70
2023-04-11T12:37:24.435Z,3.35
2023-04-11T12:39:51.725Z,3.45
2023-04-11T12:42:23.696Z,2.78
2023-04-11T12:44:51.951Z,3.22
2023-04-11T12:47:19.133Z,3.28
2023-04-11T12:49:46.503Z,3.28
2023-04-11T12:52:13.694Z,3.03
2023-04-11T12:54:41.192Z,2.78
2023-04-11T12:57:08.415Z,3.13
2023-04-11T12:59:35.693Z,2.97
2023-04-11T13:02:03.249Z,3.20
2023-04-11T13:04:30.890Z,2.92
2023-04-11T13:07:01.554Z,3.15
2023-04-11T13:09:29.804Z,3.03
2023-04-11T13:11:58.184Z,2.88
2023-04-11T13:14:25.469Z,3.13
2023-04-11T13:16:52.660Z,3.42
2023-04-11T13:19:21.064Z,3.42
2023-04-11T13:21:48.747Z,3.30
2023-04-11T13:24:16.594Z,3.17
2023-04-11T13:26:45.109Z,3.00
2023-04-11T13:29:12.619Z,2.92
2023-04-11T13:31:39.996Z,3.03
2023-04-11T13:34:07.228Z,2.90
2023-04-11T13:36:34.461Z,3.22
2023-04-11T13:39:01.704Z,3.15
2023-04-11T13:41:28.810Z,2.80
2023-04-11T13:43:56.075Z,3.03
2023-04-11T13:46:23.407Z,3.20
2023-04-11T13:48:50.592Z,3.00
2023-04-11T13:51:17.874Z,2.92
2023-04-11T13:53:45.088Z,2.92
2023-04-11T13:56:12.188Z,2.92
2023-04-11T13:58:39.459Z,2.60
2023-04-11T14:01:07.013Z,2.88
2023-04-11T14:03:34.695Z,3.03
2023-04-11T14:06:03.287Z,3.00
2023-04-11T14:08:31.269Z,2.78
2023-04-11T14:10:58.392Z,2.92
2023-04-11T14:13:25.629Z,2.90
2023-04-11T14:16:05.376Z,3.00
2023-04-11T14:18:35.008Z,3.03
2023-04-11T14:21:02.469Z,3.20
2023-04-11T14:23:30.096Z,3.25
2023-04-11T14:25:57.368Z,3.10
2023-04-11T14:28:26.499Z,3.40
2023-04-11T14:30:54.346Z,2.85
2023-04-11T14:33:21.706Z,3.55
2023-04-11T14:35:50.596Z,3.08
2023-04-11T14:38:17.921Z,3.15
2023-04-11T14:40:45.202Z,3.17
2023-04-11T14:43:12.530Z,2.83
2023-04-11T14:45:39.709Z,3.00
2023-04-11T14:48:07.101Z,2.78
2023-04-11T14:50:34.435Z,3.83
2023-04-11T14:53:01.759Z,3.20
2023-04-11T14:55:28.992Z,2.85
2023-04-11T14:57:56.650Z,3.60
2023-04-11T15:00:25.076Z,3.20
2023-04-11T15:02:54.465Z,3.30
2023-04-11T15:05:23.360Z,3.45
2023-04-11T15:07:52.795Z,2.60
2023-04-11T15:10:22.933Z,3.53
2023-04-11T15:12:50.193Z,2.85
2023-04-11T15:15:17.426Z,2.75
2023-04-11T15:17:47.427Z,2.75
2023-04-11T15:20:15.133Z,2.80
2023-04-11T15:22:44.970Z,3.22
2023-04-11T15:25:15.028Z,3.22
2023-04-11T15:27:43.260Z,2.97
2023-04-11T15:30:11.472Z,3.20
2023-04-11T15:32:44.078Z,3.10
2023-04-11T15:35:11.620Z,2.80
2023-04-11T15:37:38.770Z,2.85
2023-04-11T15:40:06.845Z,2.80
2023-04-11T15:42:35.656Z,3.08
2023-04-11T15:45:03.549Z,2.72
2023-04-11T15:47:31.578Z,2.47
2023-04-11T15:50:01.909Z,2.92
2023-04-11T15:52:29.068Z,3.15
2023-04-11T15:54:57.235Z,2.95
2023-04-11T15:57:24.495Z,2.95
2023-04-11T15:59:51.650Z,2.83
2023-04-11T16:02:18.900Z,2.40
2023-04-11T16:04:47.961Z,3.10
2023-04-11T16:07:18.546Z,2.50
2023-04-11T16:09:46.829Z,2.55
2023-04-11T16:12:14.358Z,2.70
2023-04-11T16:14:41.638Z,3.35
2023-04-11T16:17:08.806Z,2.70
2023-04-11T16:19:36.057Z,2.83
2023-04-11T16:22:03.264Z,2.72
2023-04-11T16:24:30.623Z,2.58
2023-04-11T16:26:57.763Z,2.90
2023-04-11T16:29:25.391Z,3.38
2023-04-11T16:31:52.722Z,3.60
2023-04-11T16:34:20.054Z,3.05
2023-04-11T16:36:47.635Z,2.88
2023-04-11T16:39:14.864Z,2.90
2023-04-11T16:41:41.996Z,2.72
2023-04-11T16:44:11.576Z,3.33
2023-04-11T16:46:39.703Z,2.47
2023-04-11T16:49:07.566Z,2.30
2023-04-11T16:51:36.659Z,2.88
2023-04-11T16:54:09.468Z,2.60
2023-04-11T16:56:37.562Z,2.67
2023-04-11T16:59:05.415Z,2.70
2023-04-11T17:01:32.787Z,2.53
2023-04-11T17:04:01.946Z,2.67
2023-04-11T17:06:29.462Z,2.92
2023-04-11T17:08:57.847Z,2.95
2023-04-11T17:11:25.914Z,3.30
2023-04-11T17:13:55.091Z,3.00
2023-04-11T17:16:22.832Z,2.40
2023-04-11T17:18:50.016Z,2.90
2023-04-11T17:21:18.068Z,2.75
2023-04-11T17:23:46.427Z,2.92
2023-04-11T17:26:13.955Z,2.47
2023-04-11T17:28:42.382Z,2.75
2023-04-11T17:31:13.054Z,2.50
2023-04-11T17:33:41.306Z,2.58
2023-04-11T17:36:09.864Z,3.10
2023-04-11T17:38:38.605Z,2.88
2023-04-11T17:41:14.340Z,2.83
2023-04-11T17:43:42.001Z,3.03
2023-04-11T17:46:09.568Z,3.35
2023-04-11T17:48:37.026Z,3.22
2023-04-11T17:51:06.146Z,3.50
2023-04-11T17:53:33.977Z,3.00
2023-04-11T17:56:04.607Z,3.15
2023-04-11T17:58:32.176Z,2.90
2023-04-11T18:00:59.801Z,3.10
2023-04-11T18:03:27.417Z,2.78
2023-04-11T18:05:55.053Z,3.10
2023-04-11T18:08:36.163Z,2.78
2023-04-11T18:11:11.025Z,2.90
2023-04-11T18:13:39.637Z,3.00
2023-04-11T18:16:06.954Z,3.10
2023-04-11T18:18:34.122Z,2.72
2023-04-11T18:21:06.555Z,3.30
2023-04-11T18:23:35.083Z,2.88
2023-04-11T18:26:02.333Z,2.85
2023-04-11T18:28:29.744Z,2.90
2023-04-11T18:30:57.005Z,3.22
2023-04-11T18:33:24.334Z,2.80
2023-04-11T18:35:51.897Z,3.60
2023-04-11T18:38:19.363Z,3.22
2023-04-11T18:40:46.872Z,2.92
2023-04-11T18:43:15.882Z,3.35
2023-04-11T18:45:44.192Z,2.75
2023-04-11T18:48:12.396Z,2.75
2023-04-11T18:50:43.096Z,3.00
2023-04-11T18:53:13.956Z,2.83
2023-04-11T18:55:41.609Z,3.20
2023-04-11T18:58:09.867Z,3.17
2023-04-11T19:00:39.463Z,3.90
2023-04-11T19:03:15.540Z,4.00
2023-04-11T19:05:44.226Z,3.42
2023-04-11T19:08:12.405Z,3.38
2023-04-11T19:10:39.742Z,3.90
2023-04-11T19:13:07.217Z,3.85
2023-04-11T19:15:34.572Z,3.28
2023-04-11T19:18:02.094Z,3.75
2023-04-11T19:20:29.720Z,3.88
2023-04-11T19:22:57.265Z,3.85
2023-04-11T19:25:25.071Z,3.70
2023-04-11T19:27:52.532Z,4.00
2023-04-11T19:30:19.948Z,3.38
2023-04-11T19:32:49.013Z,3.78
2023-04-11T19:35:21.387Z,3.53
2023-04-11T19:37:48.841Z,3.80
2023-04-11T19:40:18.439Z,3.63
2023-04-11T19:42:46.002Z,3.45
2023-04-11T19:45:13.196Z,3.92
2023-04-11T19:47:41.771Z,4.30
2023-04-11T19:50:13.340Z,3.50
2023-04-11T19:52:42.507Z,3.65
2023-04-11T19:55:11.313Z,4.20
2023-04-11T19:57:39.092Z,3.65
2023-04-11T20:00:12.369Z,4.35
2023-04-11T20:02:44.922Z,3.67
2023-04-11T20:05:16.280Z,3.63
2023-04-11T20:07:44.090Z,3.70
2023-04-11T20:10:12.814Z,3.95
2023-04-11T20:12:40.400Z,4.65
2023-04-11T20:15:08.425Z,3.97
2023-04-11T20:17:35.940Z,4.10
2023-04-11T20:20:06.616Z,4.47
2023-04-11T20:22:33.908Z,4.00
2023-04-11T20:25:01.119Z,4.78
2023-04-11T20:27:28.442Z,4.00
2023-04-11T20:29:56.808Z,4.18
2023-04-11T20:32:24.214Z,3.95
2023-04-11T20:34:51.554Z,4.00
2023-04-11T20:37:19.652Z,3.65
2023-04-11T20:39:46.976Z,4.30
2023-04-11T20:42:14.143Z,4.57
2023-04-11T20:44:41.790Z,3.95
2023-04-11T20:47:09.268Z,3.85
2023-04-11T20:49:36.516Z,4.25
2023-04-11T20:52:03.829Z,4.30
2023-04-11T20:54:31.058Z,3.92
2023-04-11T20:56:58.263Z,3.72
2023-04-11T20:59:26.371Z,4.00
2023-04-11T21:01:53.931Z,4.50
2023-04-11T21:04:22.518Z,4.20
2023-04-11T21:06:50.728Z,4.82
2023-04-11T21:09:18.602Z,4.22
2023-04-11T21:11:45.840Z,5.53
2023-04-11T21:14:12.969Z,3.85
2023-04-11T21:16:40.173Z,4.57
2023-04-11T21:19:07.381Z,4.80
2023-04-11T21:21:34.663Z,4.10
2023-04-11T21:24:03.637Z,4.22
2023-04-11T21:26:31.568Z,3.63
2023-04-11T21:28:58.701Z,4.40
2023-04-11T21:31:26.050Z,4.50
2023-04-11T21:33:53.176Z,4.00
2023-04-11T21:36:20.482Z,4.13
2023-04-11T21:38:47.596Z,4.22
2023-04-11T21:41:14.816Z,4.28
2023-04-11T21:43:41.949Z,3.63
2023-04-11T21:46:09.236Z,4.47
2023-04-11T21:48:36.722Z,4.43
2023-04-11T21:51:04.170Z,3.78
2023-04-11T21:53:31.304Z,3.92
2023-04-11T21:55:58.637Z,4.72
2023-04-11T21:58:29.810Z,4.30
2023-04-11T22:00:57.413Z,4.75
2023-04-11T22:03:24.960Z,4.70
2023-04-11T22:05:53.292Z,4.70
2023-04-11T22:08:22.564Z,4.57
2023-04-11T22:10:50.942Z,4.22
2023-04-11T22:13:19.505Z,4.00
2023-04-11T22:15:48.922Z,4.30
2023-04-11T22:18:16.249Z,4.88
2023-04-11T22:20:44.406Z,4.13
2023-04-11T22:23:12.978Z,4.70
2023-04-11T22:25:42.838Z,4.13
2023-04-11T22:28:15.698Z,4.50
2023-04-11T22:30:44.181Z,4.03
2023-04-11T22:33:13.713Z,3.85
2023-04-11T22:35:44.061Z,4.90
2023-04-11T22:38:11.646Z,4.30
2023-04-11T22:40:40.356Z,4.07
2023-04-11T22:43:07.483Z,4.70
2023-04-11T22:45:36.057Z,4.47
2023-04-11T22:48:04.694Z,4.45
2023-04-11T22:50:32.906Z,4.38
2023-04-11T22:53:02.155Z,4.38
2023-04-11T22:55:34.489Z,4.50
2023-04-11T22:58:02.833Z,4.95
2023-04-11T23:00:30.446Z,5.15
2023-04-11T23:02:59.972Z,4.55
2023-04-11T23:05:27.235Z,4.22
2023-04-11T23:07:54.360Z,4.72
2023-04-11T23:10:21.424Z,4.70
2023-04-11T23:12:49.669Z,4.72
2023-04-11T23:15:17.488Z,5.15
2023-04-11T23:17:44.994Z,4.20
2023-04-11T23:20:13.854Z,4.85
2023-04-11T23:22:43.247Z,4.55
2023-04-11T23:25:11.851Z,4.55
2023-04-11T23:27:39.782Z,4.28
2023-04-11T23:30:07.822Z,4.93
2023-04-11T23:32:35.206Z,4.15
2023-04-11T23:35:04.723Z,4.30
2023-04-11T23:37:32.251Z,4.15
2023-04-11T23:39:59.646Z,4.50
2023-04-11T23:42:26.887Z,4.40
2023-04-11T23:44:54.081Z,4.10
2023-04-11T23:47:21.360Z,4.55
2023-04-11T23:49:48.542Z,4.43
2023-04-11T23:52:15.741Z,5.43
2023-04-11T23:54:43.522Z,4.35
2023-04-11T23:57:10.812Z,3.72
2023-04-11T23:59:37.950Z,4.00
